createdAt,value
2023-04-24T00:01:30.552Z,21.72
2023-04-24T00:04:17.865Z,21.72
2023-04-24T00:07:03.904Z,21.71
2023-04-24T00:09:49.441Z,21.72
2023-04-24T00:12:34.756Z,21.72
2023-04-24T00:15:19.982Z,21.72
2023-04-24T00:18:05.575Z,21.72
2023-04-24T00:20:51.016Z,21.72
2023-04-24T00:23:36.348Z,21.71
2023-04-24T00:26:21.518Z,21.71
2023-04-24T00:29:06.783Z,21.69
2023-04-24T00:31:52.236Z,21.70
2023-04-24T00:34:37.464Z,21.69
2023-04-24T00:37:22.813Z,21.72
2023-04-24T00:40:08.969Z,21.69
2023-04-24T00:42:54.489Z,21.71
2023-04-24T00:45:39.881Z,21.69
2023-04-24T00:48:26.230Z,21.71
2023-04-24T00:51:11.593Z,21.69
2023-04-24T00:53:56.975Z,21.69
2023-04-24T00:56:43.605Z,21.69
2023-04-24T00:59:29.399Z,21.69
2023-04-24T01:02:15.884Z,21.70
2023-04-24T01:05:02.461Z,21.69
2023-04-24T01:07:50.029Z,21.69
2023-04-24T01:10:37.531Z,21.69
2023-04-24T01:13:22.966Z,21.68
2023-04-24T01:16:08.328Z,21.69
2023-04-24T01:18:53.528Z,21.68
2023-04-24T01:21:39.977Z,21.68
2023-04-24T01:24:25.343Z,21.68
2023-04-24T01:27:11.309Z,21.68
2023-04-24T01:29:56.588Z,21.69
2023-04-24T01:32:45.515Z,21.68
2023-04-24T01:35:31.173Z,21.68
2023-04-24T01:38:16.416Z,21.67
2023-04-24T01:41:01.989Z,21.68
2023-04-24T01:43:47.617Z,21.67
2023-04-24T01:46:35.689Z,21.68
2023-04-24T01:49:23.135Z,21.68
2023-04-24T01:52:08.714Z,21.66
2023-04-24T01:54:54.318Z,21.66
2023-04-24T01:57:39.694Z,21.68
2023-04-24T02:00:25.972Z,21.68
2023-04-24T02:03:12.552Z,21.67
2023-04-24T02:05:58.283Z,21.67
2023-04-24T02:08:43.553Z,21.67
2023-04-24T02:11:28.855Z,21.67
2023-04-24T02:14:14.057Z,21.66
2023-04-24T02:16:59.280Z,21.66
2023-04-24T02:19:44.751Z,21.65
2023-04-24T02:22:30.316Z,21.66
2023-04-24T02:25:15.547Z,21.65
2023-04-24T02:28:01.103Z,21.66
2023-04-24T02:30:46.291Z,21.65
2023-04-24T02:33:31.595Z,21.65
2023-04-24T02:36:16.907Z,21.66
2023-04-24T02:39:02.238Z,21.65
2023-04-24T02:41:47.569Z,21.65
2023-04-24T02:44:35.382Z,21.65
2023-04-24T02:47:20.751Z,21.64
2023-04-24T02:50:08.959Z,21.64
2023-04-24T02:52:54.254Z,21.65
2023-04-24T02:55:39.553Z,21.61
2023-04-24T02:58:25.953Z,21.62
2023-04-24T03:01:11.569Z,21.62
2023-04-24T03:03:57.421Z,21.62
2023-04-24T03:06:42.871Z,21.63
2023-04-24T03:09:28.000Z,21.64
2023-04-24T03:12:13.182Z,21.64
2023-04-24T03:14:58.503Z,21.63
2023-04-24T03:17:43.935Z,21.64
2023-04-24T03:20:29.446Z,21.63
2023-04-24T03:23:16.495Z,21.59
2023-04-24T03:26:01.797Z,21.59
2023-04-24T03:28:47.463Z,21.57
2023-04-24T03:31:32.916Z,21.57
2023-04-24T03:34:18.492Z,21.56
2023-04-24T03:37:03.771Z,21.57
2023-04-24T03:39:50.328Z,21.54
2023-04-24T03:42:39.489Z,21.55
2023-04-24T03:45:25.457Z,21.61
2023-04-24T03:48:10.919Z,21.63
2023-04-24T03:50:56.670Z,21.63
2023-04-24T03:53:41.941Z,21.63
2023-04-24T03:56:28.777Z,21.63
2023-04-24T03:59:14.474Z,21.64
2023-04-24T04:02:03.004Z,21.67
2023-04-24T04:04:48.883Z,21.73
2023-04-24T04:07:35.032Z,21.77
2023-04-24T04:10:20.735Z,21.79
2023-04-24T04:13:07.259Z,21.84
2023-04-24T04:15:53.745Z,21.86
2023-04-24T04:18:39.957Z,21.90
2023-04-24T04:21:27.558Z,21.93
2023-04-24T04:24:25.278Z,21.97
2023-04-24T04:27:12.015Z,22.00
2023-04-24T04:30:09.550Z,22.04
2023-04-24T04:33:05.830Z,22.06
2023-04-24T04:35:54.987Z,22.10
2023-04-24T04:38:42.973Z,22.14
2023-04-24T04:41:49.915Z,22.17
2023-04-24T04:44:37.223Z,22.22
2023-04-24T04:47:24.882Z,22.25
2023-04-24T04:50:12.357Z,22.25
2023-04-24T04:53:01.065Z,22.27
2023-04-24T04:55:53.239Z,22.29
2023-04-24T04:58:41.277Z,22.29
2023-04-24T05:01:30.232Z,22.32
2023-04-24T05:04:16.144Z,22.31
2023-04-24T05:07:01.745Z,22.32
2023-04-24T05:09:50.308Z,22.32
2023-04-24T05:12:35.909Z,22.30
2023-04-24T05:15:22.624Z,22.28
2023-04-24T05:18:08.061Z,22.28
2023-04-24T05:20:53.265Z,22.30
2023-04-24T05:23:39.065Z,22.27
2023-04-24T05:26:25.272Z,22.24
2023-04-24T05:29:10.836Z,22.24
2023-04-24T05:31:56.416Z,22.21
2023-04-24T05:34:42.196Z,22.20
2023-04-24T05:37:28.636Z,22.18
2023-04-24T05:40:14.459Z,22.16
2023-04-24T05:42:59.730Z,22.15
2023-04-24T05:45:45.008Z,22.11
2023-04-24T05:48:31.112Z,22.10
2023-04-24T05:51:19.396Z,22.08
2023-04-24T05:54:04.820Z,22.08
2023-04-24T05:56:51.759Z,22.04
2023-04-24T05:59:46.960Z,22.03
2023-04-24T06:02:33.720Z,22.01
2023-04-24T06:05:19.202Z,22.00
2023-04-24T06:08:04.276Z,21.98
2023-04-24T06:10:54.594Z,21.97
2023-04-24T06:13:40.777Z,21.98
2023-04-24T06:17:04.593Z,21.95
2023-04-24T06:19:55.680Z,21.94
2023-04-24T06:22:44.243Z,21.93
2023-04-24T06:25:30.096Z,21.92
2023-04-24T06:28:15.181Z,21.91
2023-04-24T06:31:00.414Z,21.90
2023-04-24T06:33:45.626Z,21.89
2023-04-24T06:36:32.196Z,21.89
2023-04-24T06:39:17.993Z,21.88
2023-04-24T06:42:03.810Z,21.87
2023-04-24T06:44:51.571Z,21.87
2023-04-24T06:47:36.991Z,21.87
2023-04-24T06:50:22.492Z,21.86
2023-04-24T06:53:08.257Z,21.85
2023-04-24T06:55:58.362Z,21.85
2023-04-24T06:58:43.981Z,21.83
2023-04-24T07:01:29.557Z,21.83
2023-04-24T07:04:15.127Z,21.83
2023-04-24T07:07:00.712Z,21.83
2023-04-24T07:09:47.011Z,21.83
2023-04-24T07:12:33.218Z,21.83
2023-04-24T07:15:18.736Z,21.82
2023-04-24T07:18:05.757Z,21.82
2023-04-24T07:20:51.403Z,21.81
2023-04-24T07:23:36.720Z,21.81
2023-04-24T07:26:22.202Z,21.82
2023-04-24T07:29:08.555Z,21.82
2023-04-24T07:31:55.119Z,21.80
2023-04-24T07:34:40.324Z,21.81
2023-04-24T07:37:25.888Z,21.81
2023-04-24T07:40:11.899Z,21.81
2023-04-24T07:42:57.156Z,21.80
2023-04-24T07:45:42.719Z,21.79
2023-04-24T07:48:28.010Z,21.80
2023-04-24T07:51:14.405Z,21.80
2023-04-24T07:53:59.657Z,21.80
2023-04-24T07:56:45.351Z,21.79
2023-04-24T07:59:30.874Z,21.80
2023-04-24T08:02:15.990Z,21.79
2023-04-24T08:05:01.170Z,21.80
2023-04-24T08:07:49.585Z,21.80
2023-04-24T08:10:35.127Z,21.80
2023-04-24T08:13:20.792Z,21.81
2023-04-24T08:16:06.433Z,21.80
2023-04-24T08:18:52.104Z,21.80
2023-04-24T08:21:37.620Z,21.80
2023-04-24T08:24:23.685Z,21.81
2023-04-24T08:27:09.539Z,21.80
2023-04-24T08:29:55.656Z,21.80
2023-04-24T08:32:41.002Z,21.79
2023-04-24T08:35:26.402Z,21.80
2023-04-24T08:38:11.577Z,21.78
2023-04-24T08:40:59.381Z,21.79
2023-04-24T08:43:47.416Z,21.78
2023-04-24T08:46:33.800Z,21.78
2023-04-24T08:49:19.960Z,21.79
2023-04-24T08:52:09.465Z,21.78
2023-04-24T08:54:55.958Z,21.78
2023-04-24T08:57:41.661Z,21.78
2023-04-24T09:00:28.077Z,21.78
2023-04-24T09:03:18.088Z,21.77
2023-04-24T09:06:03.830Z,21.79
2023-04-24T09:08:52.162Z,21.78
2023-04-24T09:11:38.072Z,21.79
2023-04-24T09:14:24.739Z,21.77
2023-04-24T09:17:10.022Z,21.79
2023-04-24T09:19:56.205Z,21.78
2023-04-24T09:22:43.315Z,21.78
2023-04-24T09:25:39.065Z,21.78
2023-04-24T09:28:31.039Z,21.78
2023-04-24T09:31:20.427Z,21.78
2023-04-24T09:34:09.029Z,21.78
2023-04-24T09:36:55.976Z,21.76
2023-04-24T09:39:41.711Z,21.78
2023-04-24T09:42:30.114Z,21.76
2023-04-24T09:45:16.302Z,21.77
2023-04-24T09:48:01.959Z,21.77
2023-04-24T09:50:48.294Z,21.78
2023-04-24T09:53:34.246Z,21.77
2023-04-24T09:56:22.732Z,21.76
2023-04-24T09:59:08.441Z,21.78
2023-04-24T10:01:53.799Z,21.78
2023-04-24T10:04:39.425Z,21.78
2023-04-24T10:07:30.589Z,21.77
2023-04-24T10:10:16.376Z,21.77
2023-04-24T10:13:02.450Z,21.79
2023-04-24T10:15:49.129Z,21.78
2023-04-24T10:18:35.146Z,21.78
2023-04-24T10:21:21.070Z,21.78
2023-04-24T10:24:08.480Z,21.78
2023-04-24T10:26:54.316Z,21.78
2023-04-24T10:29:41.019Z,21.78
2023-04-24T10:32:27.452Z,21.78
2023-04-24T10:35:14.807Z,21.77
2023-04-24T10:38:25.849Z,21.78
2023-04-24T10:41:20.743Z,21.78
2023-04-24T10:44:10.896Z,21.78
2023-04-24T10:46:56.873Z,21.76
2023-04-24T10:49:43.542Z,21.78
2023-04-24T10:52:45.566Z,21.76
2023-04-24T10:55:52.343Z,21.76
2023-04-24T10:58:50.106Z,21.77
2023-04-24T11:01:39.574Z,21.76
2023-04-24T11:04:32.748Z,21.76
2023-04-24T11:07:17.988Z,21.76
2023-04-24T11:10:03.421Z,21.77
2023-04-24T11:12:48.746Z,21.76
2023-04-24T11:15:34.532Z,21.76
2023-04-24T11:18:20.707Z,21.77
2023-04-24T11:21:19.020Z,21.77
2023-04-24T11:24:42.827Z,21.77
2023-04-24T11:27:49.773Z,21.77
2023-04-24T11:30:36.327Z,21.77
2023-04-24T11:33:22.555Z,21.78
2023-04-24T11:36:08.223Z,21.77
2023-04-24T11:38:54.370Z,21.77
2023-04-24T11:41:39.717Z,21.77
2023-04-24T11:44:26.279Z,21.77
2023-04-24T11:47:12.194Z,21.78
2023-04-24T11:49:59.635Z,21.77
2023-04-24T11:52:47.916Z,21.79
2023-04-24T11:55:33.654Z,21.79
2023-04-24T11:58:27.910Z,21.78
2023-04-24T12:01:13.650Z,21.77
2023-04-24T12:04:01.952Z,21.78
2023-04-24T12:07:03.794Z,21.77
2023-04-24T12:09:57.043Z,21.77
2023-04-24T12:12:42.217Z,21.78
2023-04-24T12:15:28.110Z,21.78
2023-04-24T12:18:14.800Z,21.79
2023-04-24T12:21:22.552Z,21.78
2023-04-24T12:24:08.822Z,21.79
2023-04-24T12:26:54.693Z,21.76
2023-04-24T12:29:54.892Z,21.74
2023-04-24T12:32:45.917Z,21.74
2023-04-24T12:35:34.383Z,21.74
2023-04-24T12:38:24.583Z,21.74
2023-04-24T12:41:12.618Z,21.73
2023-04-24T12:43:58.494Z,21.72
2023-04-24T12:46:44.115Z,21.72
2023-04-24T12:49:31.887Z,21.73
2023-04-24T12:52:18.431Z,21.71
2023-04-24T12:55:06.099Z,21.72
2023-04-24T12:57:51.666Z,21.71
2023-04-24T13:00:37.983Z,21.71
2023-04-24T13:03:23.857Z,21.74
2023-04-24T13:06:09.612Z,21.78
2023-04-24T13:08:56.065Z,21.79
2023-04-24T13:11:41.423Z,21.82
2023-04-24T13:14:26.771Z,21.87
2023-04-24T13:17:12.933Z,21.90
2023-04-24T13:19:58.617Z,21.93
2023-04-24T13:22:43.971Z,21.96
2023-04-24T13:25:29.399Z,22.00
2023-04-24T13:28:15.330Z,22.05
2023-04-24T13:31:01.025Z,22.08
2023-04-24T13:33:46.294Z,22.11
2023-04-24T13:36:32.672Z,22.14
2023-04-24T13:39:18.434Z,22.17
2023-04-24T13:42:05.269Z,22.20
2023-04-24T13:44:52.165Z,22.23
2023-04-24T13:47:37.753Z,22.26
2023-04-24T13:50:23.110Z,22.29
2023-04-24T13:53:08.826Z,22.31
2023-04-24T13:55:54.167Z,22.33
2023-04-24T13:58:40.001Z,22.36
2023-04-24T14:01:25.974Z,22.38
2023-04-24T14:04:12.251Z,22.37
2023-04-24T14:06:57.814Z,22.35
2023-04-24T14:09:43.230Z,22.33
2023-04-24T14:12:29.505Z,22.29
2023-04-24T14:15:14.813Z,22.27
2023-04-24T14:18:00.164Z,22.27
2023-04-24T14:20:46.249Z,22.29
2023-04-24T14:23:33.058Z,22.33
2023-04-24T14:26:18.475Z,22.38
2023-04-24T14:29:13.939Z,22.40
2023-04-24T14:31:59.715Z,22.45
2023-04-24T14:34:45.500Z,22.47
2023-04-24T14:37:31.903Z,22.51
2023-04-24T14:40:39.721Z,22.53
2023-04-24T14:43:22.888Z,22.54
2023-04-24T14:46:08.131Z,22.54
2023-04-24T14:48:53.424Z,22.52
2023-04-24T14:51:38.636Z,22.55
2023-04-24T14:54:24.512Z,22.57
2023-04-24T14:57:10.825Z,22.56
2023-04-24T14:59:57.609Z,22.57
2023-04-24T15:02:45.876Z,22.61
2023-04-24T15:05:32.666Z,22.61
2023-04-24T15:08:19.074Z,22.61
2023-04-24T15:11:04.642Z,22.63
2023-04-24T15:13:50.989Z,22.65
2023-04-24T15:16:36.533Z,22.67
2023-04-24T15:19:22.109Z,22.68
2023-04-24T15:22:07.687Z,22.70
2023-04-24T15:24:53.206Z,22.68
2023-04-24T15:27:46.332Z,22.67
2023-04-24T15:30:32.142Z,22.66
2023-04-24T15:33:17.539Z,22.64
2023-04-24T15:36:03.259Z,22.61
2023-04-24T15:38:48.841Z,22.62
2023-04-24T15:41:34.088Z,22.61
2023-04-24T15:44:21.101Z,22.61
2023-04-24T15:47:06.675Z,22.59
2023-04-24T15:49:53.571Z,22.60
2023-04-24T15:52:39.257Z,22.59
2023-04-24T15:55:24.577Z,22.60
2023-04-24T15:58:09.864Z,22.59
2023-04-24T16:00:56.302Z,22.62
2023-04-24T16:03:42.066Z,22.62
2023-04-24T16:06:27.899Z,22.65
2023-04-24T16:09:13.518Z,22.66
2023-04-24T16:11:59.412Z,22.67
2023-04-24T16:14:45.097Z,22.63
2023-04-24T16:17:30.542Z,22.61
2023-04-24T16:20:16.204Z,22.58
2023-04-24T16:23:01.753Z,22.61
2023-04-24T16:25:47.182Z,22.63
2023-04-24T16:28:32.472Z,22.62
2023-04-24T16:31:17.938Z,22.61
2023-04-24T16:34:05.116Z,22.62
2023-04-24T16:36:50.578Z,22.67
2023-04-24T16:39:36.029Z,22.71
2023-04-24T16:42:21.425Z,22.69
2023-04-24T16:45:07.391Z,22.72
2023-04-24T16:47:52.704Z,22.71
2023-04-24T16:50:38.182Z,22.71
2023-04-24T16:53:24.094Z,22.68
2023-04-24T16:56:09.779Z,22.66
2023-04-24T16:58:55.343Z,22.62
2023-04-24T17:01:40.855Z,22.62
2023-04-24T17:04:26.135Z,22.62
2023-04-24T17:07:11.378Z,22.62
2023-04-24T17:09:56.517Z,22.63
2023-04-24T17:12:41.807Z,22.60
2023-04-24T17:15:27.155Z,22.62
2023-04-24T17:18:12.378Z,22.62
2023-04-24T17:20:57.675Z,22.61
2023-04-24T17:23:42.961Z,22.60
2023-04-24T17:26:28.674Z,22.60
2023-04-24T17:29:15.482Z,22.60
2023-04-24T17:32:01.244Z,22.60
2023-04-24T17:34:47.832Z,22.60
2023-04-24T17:37:33.725Z,22.60
2023-04-24T17:40:19.138Z,22.61
2023-04-24T17:43:04.483Z,22.60
2023-04-24T17:45:58.083Z,22.60
2023-04-24T17:48:43.702Z,22.61
2023-04-24T17:51:29.213Z,22.60
2023-04-24T17:54:18.295Z,22.61
2023-04-24T17:57:03.897Z,22.61
2023-04-24T17:59:49.369Z,22.61
2023-04-24T18:02:36.422Z,22.64
2023-04-24T18:05:21.993Z,22.62
2023-04-24T18:08:07.636Z,22.61
2023-04-24T18:10:52.827Z,22.61
2023-04-24T18:13:39.831Z,22.62
2023-04-24T18:16:26.021Z,22.60
2023-04-24T18:19:11.249Z,22.59
2023-04-24T18:21:56.449Z,22.59
2023-04-24T18:24:41.752Z,22.57
2023-04-24T18:27:30.880Z,22.56
2023-04-24T18:30:16.603Z,22.55
2023-04-24T18:33:02.180Z,22.53
2023-04-24T18:35:47.364Z,22.52
2023-04-24T18:38:32.824Z,22.50
2023-04-24T18:41:18.137Z,22.49
2023-04-24T18:44:03.460Z,22.47
2023-04-24T18:46:48.472Z,22.45
2023-04-24T18:49:33.930Z,22.42
2023-04-24T18:52:19.323Z,22.41
2023-04-24T18:55:04.806Z,22.41
2023-04-24T18:57:50.598Z,22.41
2023-04-24T19:00:35.965Z,22.41
2023-04-24T19:03:21.389Z,22.39
2023-04-24T19:06:07.036Z,22.39
2023-04-24T19:08:52.125Z,22.39
2023-04-24T19:11:37.788Z,22.37
2023-04-24T19:14:23.257Z,22.37
2023-04-24T19:17:10.100Z,22.35
2023-04-24T19:19:55.430Z,22.35
2023-04-24T19:22:41.216Z,22.35
2023-04-24T19:25:26.480Z,22.33
2023-04-24T19:28:12.606Z,22.34
2023-04-24T19:30:58.748Z,22.33
2023-04-24T19:33:48.391Z,22.32
2023-04-24T19:36:34.151Z,22.31
2023-04-24T19:39:19.414Z,22.31
2023-04-24T19:42:07.370Z,22.30
2023-04-24T19:44:53.075Z,22.31
2023-04-24T19:47:38.641Z,22.30
2023-04-24T19:50:24.103Z,22.32
2023-04-24T19:53:09.579Z,22.37
2023-04-24T19:55:54.877Z,22.37
2023-04-24T19:58:40.085Z,22.39
2023-04-24T20:01:25.885Z,22.40
2023-04-24T20:04:11.964Z,22.41
2023-04-24T20:06:57.474Z,22.41
2023-04-24T20:09:42.828Z,22.41
2023-04-24T20:12:28.080Z,22.41
2023-04-24T20:15:13.544Z,22.40
2023-04-24T20:17:59.520Z,22.39
2023-04-24T20:20:44.758Z,22.39
2023-04-24T20:23:30.155Z,22.38
2023-04-24T20:26:15.463Z,22.39
2023-04-24T20:29:00.772Z,22.38
2023-04-24T20:31:46.514Z,22.40
2023-04-24T20:34:31.739Z,22.41
2023-04-24T20:37:17.090Z,22.40
2023-04-24T20:40:05.399Z,22.36
2023-04-24T20:42:51.387Z,22.33
2023-04-24T20:45:36.689Z,22.31
2023-04-24T20:48:21.904Z,22.28
2023-04-24T20:51:08.084Z,22.25
2023-04-24T20:53:53.528Z,22.22
2023-04-24T20:56:38.952Z,22.19
2023-04-24T20:59:24.279Z,22.15
2023-04-24T21:02:09.438Z,22.12
2023-04-24T21:04:54.644Z,22.10
2023-04-24T21:07:40.001Z,22.08
2023-04-24T21:10:26.321Z,22.06
2023-04-24T21:13:11.754Z,22.03
2023-04-24T21:15:56.945Z,22.00
2023-04-24T21:18:42.323Z,21.99
2023-04-24T21:21:27.533Z,21.99
2023-04-24T21:24:12.853Z,21.97
2023-04-24T21:26:58.249Z,21.95
2023-04-24T21:29:43.630Z,21.93
2023-04-24T21:32:28.977Z,21.92
2023-04-24T21:35:14.425Z,21.91
2023-04-24T21:37:59.689Z,21.90
2023-04-24T21:40:44.917Z,21.89
2023-04-24T21:43:43.446Z,21.88
2023-04-24T21:46:29.971Z,21.86
2023-04-24T21:49:15.289Z,21.85
2023-04-24T21:52:00.542Z,21.85
2023-04-24T21:54:45.956Z,21.83
2023-04-24T21:57:31.891Z,21.83
2023-04-24T22:00:17.365Z,21.82
2023-04-24T22:03:04.372Z,21.80
2023-04-24T22:05:49.903Z,21.79
2023-04-24T22:08:35.051Z,21.79
2023-04-24T22:11:26.880Z,21.77
2023-04-24T22:14:12.800Z,21.77
2023-04-24T22:16:58.019Z,21.76
2023-04-24T22:19:43.829Z,21.75
2023-04-24T22:22:29.462Z,21.75
2023-04-24T22:25:15.064Z,21.73
2023-04-24T22:28:00.687Z,21.73
2023-04-24T22:30:45.992Z,21.72
2023-04-24T22:33:31.429Z,21.71
2023-04-24T22:36:17.172Z,21.70
2023-04-24T22:39:02.801Z,21.69
2023-04-24T22:41:48.361Z,21.68
2023-04-24T22:44:33.589Z,21.67
2023-04-24T22:47:19.995Z,21.68
2023-04-24T22:50:07.272Z,21.66
2023-04-24T22:52:55.516Z,21.66
2023-04-24T22:55:40.752Z,21.65
2023-04-24T22:58:26.818Z,21.64
2023-04-24T23:01:12.294Z,21.65
2023-04-24T23:03:57.717Z,21.64
2023-04-24T23:06:42.865Z,21.63
2023-04-24T23:09:28.194Z,21.64
2023-04-24T23:12:13.359Z,21.62
2023-04-24T23:14:59.492Z,21.63
2023-04-24T23:17:45.017Z,21.62
2023-04-24T23:20:31.263Z,21.62
2023-04-24T23:23:16.963Z,21.61
2023-04-24T23:26:02.321Z,21.61
2023-04-24T23:28:47.415Z,21.59
2023-04-24T23:31:32.826Z,21.59
2023-04-24T23:34:19.962Z,21.61
2023-04-24T23:37:06.286Z,21.59
2023-04-24T23:39:51.736Z,21.58
2023-04-24T23:42:36.971Z,21.57
2023-04-24T23:45:22.142Z,21.59
2023-04-24T23:48:07.835Z,21.58
2023-04-24T23:50:53.563Z,21.58
2023-04-24T23:53:39.007Z,21.57
2023-04-24T23:56:26.676Z,21.56
2023-04-24T23:59:12.174Z,21.57
